Impacts METAR Board
IDs:

KSFO - San Francisco Intl, CA, US

Updated at: 1400 UTC 21 Feb 2019
Potential Impact None Slight Moderate High
Time 21/02Z 21/03Z 21/04Z 21/05Z 21/06Z 21/07Z 21/08Z 21/09Z 21/10Z 21/11Z 21/12Z 21/13Z 21/14Z
Temp50 50 49 48 47 48 47 47 47 44 44 44 44
Dewpt38 37 37 37 37 37 35 35 35 33 34 33 32
Altim29.79 29.78 29.77 29.76 29.76 29.75 29.73 29.73 29.73 29.72 29.71 29.72 29.73
VIS10 10 10 10 10 10 10 10 10 10 10 10 10
CIG-- -- -- -- -- 150 150 150 150 -- -- -- --
CoverFEWFEWFEWFEWFEWBKNBKNBKNBKNSCTSCTSCTFEW
FltCatVFRVFRVFRVFRVFRVFRVFRVFRVFRVFRVFRVFRVFR
WX--------------------------
WDir290290300300290290290300330300310320310
WSpd20 26 20 16 16 17 12 10 5 5 6 9 7
WGst33 35 28 29 25 -- -- -- -- -- -- -- --
Raw hourly METARs
KSFO 210156Z 29020G33KT 10SM FEW025 FEW050 10/03 A2979 RMK AO2 PK WND 29034/0121 SLP087 T01000033
KSFO 210256Z 29026G35KT 10SM FEW040 10/03 A2978 RMK AO2 PK WND 28035/0255 SLP085 T01000028 56011
KSFO 210356Z 30020G28KT 10SM FEW035 09/03 A2977 RMK AO2 PK WND 28031/0259 SLP079 T00940028 $
KSFO 210456Z 30016G29KT 10SM FEW030 09/03 A2976 RMK AO2 PK WND 29030/0402 SLP077 T00890028 $
KSFO 210556Z 29016G25KT 10SM FEW030 FEW150 08/03 A2976 RMK AO2 SLP077 T00830028 10122 20083 56008 $
KSFO 210656Z 29017KT 10SM FEW120 BKN150 09/03 A2975 RMK AO2 SLP073 T00890028 $
KSFO 210756Z 29012KT 10SM FEW120 BKN150 08/02 A2973 RMK AO2 PK WND 29026/0729 SLP069 T00830017 401330083 $
KSFO 210856Z 30010KT 10SM FEW120 BKN150 08/02 A2973 RMK AO2 SLP066 T00830017 56010 $
KSFO 210956Z 33005KT 10SM FEW120 BKN150 08/02 A2973 RMK AO2 SLP066 T00830017 $
KSFO 211056Z 30005KT 10SM FEW110 SCT140 07/01 A2972 RMK AO2 SLP063 T00670006 $
KSFO 211156Z 31006KT 10SM FEW065 SCT140 07/01 A2971 RMK AO2 SLP059 T00670011 10089 20061 58007 $
KSFO 211256Z 32009KT 10SM FEW050 SCT070 07/01 A2972 RMK AO2 SLP062 T00670006 $
KSFO 211356Z 31007KT 10SM FEW025 07/00 A2973 RMK AO2 SLP068 T00670000 $



Page loaded:  14:22 UTC  |   06:22 AM Pacific  |   07:22 AM Mountain  |   08:22 AM Central  |   09:22 AM Eastern

 

ADVISORIES

FORECASTS

FORECASTS

OBSERVATIONS

USER TOOLS

ABOUT US